sensor_id;sensor_type;location;lat;lon;timestamp;pressure;altitude;pressure_sealevel;temperature;humidity
70730;BME280;58315;53.336;55.932;2022-07-31T00:01:36;99615.59;;;19.28;58.16
70730;BME280;58315;53.336;55.932;2022-07-31T00:04:02;99615.34;;;19.23;58.13
70730;BME280;58315;53.336;55.932;2022-07-31T00:06:28;99624.16;;;19.17;58.55
70730;BME280;58315;53.336;55.932;2022-07-31T00:08:54;99620.00;;;19.15;58.51
70730;BME280;58315;53.336;55.932;2022-07-31T00:11:20;99619.94;;;19.08;58.61
70730;BME280;58315;53.336;55.932;2022-07-31T00:13:46;99620.97;;;19.07;58.51
70730;BME280;58315;53.336;55.932;2022-07-31T00:16:12;99611.28;;;19.06;58.43
70730;BME280;58315;53.336;55.932;2022-07-31T00:18:38;99607.50;;;19.00;58.68
70730;BME280;58315;53.336;55.932;2022-07-31T00:21:04;99611.59;;;18.96;58.66
70730;BME280;58315;53.336;55.932;2022-07-31T00:23:30;99610.97;;;18.94;58.80
70730;BME280;58315;53.336;55.932;2022-07-31T00:25:56;99610.31;;;18.92;58.60
70730;BME280;58315;53.336;55.932;2022-07-31T00:28:23;99599.41;;;18.94;58.58
70730;BME280;58315;53.336;55.932;2022-07-31T00:30:49;99619.84;;;18.95;58.51
70730;BME280;58315;53.336;55.932;2022-07-31T00:33:15;99616.72;;;18.91;58.64
70730;BME280;58315;53.336;55.932;2022-07-31T00:35:41;99617.53;;;18.92;58.51
70730;BME280;58315;53.336;55.932;2022-07-31T00:38:07;99608.91;;;18.96;58.54
70730;BME280;58315;53.336;55.932;2022-07-31T00:40:35;99608.84;;;18.90;58.84
70730;BME280;58315;53.336;55.932;2022-07-31T00:43:01;99610.13;;;18.94;58.64
70730;BME280;58315;53.336;55.932;2022-07-31T00:45:27;99611.22;;;18.99;58.28
70730;BME280;58315;53.336;55.932;2022-07-31T00:47:54;99614.72;;;19.00;57.50
70730;BME280;58315;53.336;55.932;2022-07-31T00:50:20;99620.28;;;18.98;57.25
70730;BME280;58315;53.336;55.932;2022-07-31T00:52:46;99621.63;;;18.88;56.70
70730;BME280;58315;53.336;55.932;2022-07-31T00:55:12;99621.09;;;18.77;56.47
70730;BME280;58315;53.336;55.932;2022-07-31T00:57:38;99621.19;;;18.69;56.14
70730;BME280;58315;53.336;55.932;2022-07-31T01:00:05;99623.78;;;18.63;56.31
70730;BME280;58315;53.336;55.932;2022-07-31T01:02:31;99620.78;;;18.51;56.43
70730;BME280;58315;53.336;55.932;2022-07-31T01:04:58;99614.09;;;18.40;56.86
70730;BME280;58315;53.336;55.932;2022-07-31T01:07:24;99616.41;;;18.28;57.25
70730;BME280;58315;53.336;55.932;2022-07-31T01:09:51;99612.72;;;18.29;57.84
70730;BME280;58315;53.336;55.932;2022-07-31T01:12:26;99602.66;;;18.31;58.56
70730;BME280;58315;53.336;55.932;2022-07-31T01:14:57;99607.94;;;18.61;58.53
70730;BME280;58315;53.336;55.932;2022-07-31T01:17:26;99608.81;;;18.83;58.28
70730;BME280;58315;53.336;55.932;2022-07-31T01:19:55;99617.53;;;18.92;58.22
70730;BME280;58315;53.336;55.932;2022-07-31T01:25:36;99606.81;;;18.92;58.12
70730;BME280;58315;53.336;55.932;2022-07-31T01:31:26;99607.97;;;18.83;58.43
70730;BME280;58315;53.336;55.932;2022-07-31T01:34:10;99609.25;;;18.87;58.51
70730;BME280;58315;53.336;55.932;2022-07-31T01:36:38;99614.19;;;18.90;58.55
70730;BME280;58315;53.336;55.932;2022-07-31T01:39:06;99617.00;;;19.03;58.39
70730;BME280;58315;53.336;55.932;2022-07-31T01:41:37;99615.47;;;18.94;58.64
70730;BME280;58315;53.336;55.932;2022-07-31T01:44:06;99618.81;;;18.96;58.41
70730;BME280;58315;53.336;55.932;2022-07-31T01:46:34;99617.00;;;19.03;58.39
70730;BME280;58315;53.336;55.932;2022-07-31T01:49:02;99620.50;;;19.03;58.36
70730;BME280;58315;53.336;55.932;2022-07-31T01:51:30;99616.63;;;19.06;58.22
70730;BME280;58315;53.336;55.932;2022-07-31T01:54:00;99620.19;;;19.13;58.01
70730;BME280;58315;53.336;55.932;2022-07-31T01:56:29;99616.50;;;19.14;58.24
70730;BME280;58315;53.336;55.932;2022-07-31T01:58:58;99618.53;;;19.12;58.16
70730;BME280;58315;53.336;55.932;2022-07-31T02:01:37;99617.16;;;19.23;58.02
70730;BME280;58315;53.336;55.932;2022-07-31T02:04:05;99624.16;;;19.17;57.99
70730;BME280;58315;53.336;55.932;2022-07-31T02:06:33;99620.66;;;19.17;58.06
70730;BME280;58315;53.336;55.932;2022-07-31T02:09:01;99626.06;;;19.23;57.87
70730;BME280;58315;53.336;55.932;2022-07-31T02:11:29;99626.53;;;19.34;57.39
70730;BME280;58315;53.336;55.932;2022-07-31T02:13:56;99621.44;;;19.39;57.32
70730;BME280;58315;53.336;55.932;2022-07-31T02:16:23;99624.56;;;19.42;57.25
70730;BME280;58315;53.336;55.932;2022-07-31T02:18:59;99627.47;;;19.47;57.47
70730;BME280;58315;53.336;55.932;2022-07-31T02:21:26;99617.63;;;19.55;57.32
70730;BME280;58315;53.336;55.932;2022-07-31T02:23:53;99621.78;;;19.57;57.33
70730;BME280;58315;53.336;55.932;2022-07-31T02:26:20;99628.47;;;19.68;57.39
70730;BME280;58315;53.336;55.932;2022-07-31T02:28:47;99627.09;;;19.79;57.20
70730;BME280;58315;53.336;55.932;2022-07-31T02:31:15;99622.44;;;19.94;56.93
70730;BME280;58315;53.336;55.932;2022-07-31T02:33:45;99621.41;;;19.95;56.95
70730;BME280;58315;53.336;55.932;2022-07-31T02:36:15;99623.91;;;20.03;56.81
70730;BME280;58315;53.336;55.932;2022-07-31T02:38:44;99625.81;;;20.09;56.60
70730;BME280;58315;53.336;55.932;2022-07-31T02:41:11;99624.41;;;20.20;56.82
70730;BME280;58315;53.336;55.932;2022-07-31T02:43:39;99623.81;;;20.24;57.02
70730;BME280;58315;53.336;55.932;2022-07-31T02:46:17;99623.63;;;20.33;56.67
70730;BME280;58315;53.336;55.932;2022-07-31T02:48:44;99619.56;;;20.37;57.03
70730;BME280;58315;53.336;55.932;2022-07-31T02:51:12;99618.31;;;20.46;56.87
70730;BME280;58315;53.336;55.932;2022-07-31T02:53:40;99620.59;;;20.49;56.54
70730;BME280;58315;53.336;55.932;2022-07-31T02:56:08;99617.75;;;20.57;56.77
70730;BME280;58315;53.336;55.932;2022-07-31T02:58:38;99626.06;;;20.69;56.47
70730;BME280;58315;53.336;55.932;2022-07-31T03:01:10;99628.13;;;20.80;56.37
70730;BME280;58315;53.336;55.932;2022-07-31T03:03:40;99624.88;;;20.91;56.08
70730;BME280;58315;53.336;55.932;2022-07-31T03:06:06;99626.53;;;20.99;56.04
70730;BME280;58315;53.336;55.932;2022-07-31T03:08:33;99620.13;;;21.07;55.91
70730;BME280;58315;53.336;55.932;2022-07-31T03:11:02;99625.31;;;21.35;56.05
70730;BME280;58315;53.336;55.932;2022-07-31T03:13:31;99624.34;;;22.21;55.64
70730;BME280;58315;53.336;55.932;2022-07-31T03:15:58;99626.81;;;23.55;54.34
70730;BME280;58315;53.336;55.932;2022-07-31T03:18:27;99627.16;;;24.99;50.91
70730;BME280;58315;53.336;55.932;2022-07-31T03:20:55;99629.31;;;26.27;48.59
70730;BME280;58315;53.336;55.932;2022-07-31T03:23:23;99626.69;;;27.34;45.81
70730;BME280;58315;53.336;55.932;2022-07-31T03:25:55;99637.53;;;28.29;43.68
70730;BME280;58315;53.336;55.932;2022-07-31T03:28:23;99638.09;;;29.02;41.78
70730;BME280;58315;53.336;55.932;2022-07-31T03:30:52;99629.63;;;29.68;40.83
70730;BME280;58315;53.336;55.932;2022-07-31T03:33:19;99636.28;;;30.40;39.71
70730;BME280;58315;53.336;55.932;2022-07-31T03:35:45;99630.34;;;30.63;38.50
70730;BME280;58315;53.336;55.932;2022-07-31T03:38:11;99631.56;;;31.34;38.71
70730;BME280;58315;53.336;55.932;2022-07-31T03:40:41;99627.91;;;31.79;38.27
70730;BME280;58315;53.336;55.932;2022-07-31T03:43:07;99629.75;;;32.14;35.79
70730;BME280;58315;53.336;55.932;2022-07-31T03:45:34;99622.75;;;32.53;36.27
70730;BME280;58315;53.336;55.932;2022-07-31T03:48:02;99631.53;;;32.94;35.68
70730;BME280;58315;53.336;55.932;2022-07-31T03:50:29;99624.31;;;33.37;34.45
70730;BME280;58315;53.336;55.932;2022-07-31T03:52:56;99624.81;;;33.74;34.11
70730;BME280;58315;53.336;55.932;2022-07-31T03:55:23;99615.66;;;34.07;33.53
70730;BME280;58315;53.336;55.932;2022-07-31T03:57:50;99619.31;;;34.03;33.35
70730;BME280;58315;53.336;55.932;2022-07-31T04:00:17;99621.00;;;34.42;33.23
70730;BME280;58315;53.336;55.932;2022-07-31T04:02:45;99611.38;;;34.82;32.35
70730;BME280;58315;53.336;55.932;2022-07-31T04:05:31;99617.38;;;34.84;31.72
70730;BME280;58315;53.336;55.932;2022-07-31T04:07:57;99617.28;;;35.41;31.60
70730;BME280;58315;53.336;55.932;2022-07-31T04:10:25;99622.22;;;35.71;31.91
70730;BME280;58315;53.336;55.932;2022-07-31T04:12:51;99626.75;;;36.09;31.04
70730;BME280;58315;53.336;55.932;2022-07-31T04:15:17;99625.38;;;36.48;29.94
70730;BME280;58315;53.336;55.932;2022-07-31T04:17:44;99625.13;;;36.72;28.60
70730;BME280;58315;53.336;55.932;2022-07-31T04:20:10;99622.19;;;36.90;29.81
70730;BME280;58315;53.336;55.932;2022-07-31T04:22:37;99624.22;;;36.99;29.57
70730;BME280;58315;53.336;55.932;2022-07-31T04:25:08;99623.06;;;37.22;28.20
70730;BME280;58315;53.336;55.932;2022-07-31T04:28:06;99612.06;;;37.22;29.00
70730;BME280;58315;53.336;55.932;2022-07-31T04:30:32;99608.03;;;37.51;28.92
70730;BME280;58315;53.336;55.932;2022-07-31T04:32:58;99610.66;;;37.56;27.76
70730;BME280;58315;53.336;55.932;2022-07-31T04:35:25;99599.78;;;37.91;27.87
70730;BME280;58315;53.336;55.932;2022-07-31T04:37:51;99608.16;;;38.34;27.31
70730;BME280;58315;53.336;55.932;2022-07-31T04:40:19;99598.78;;;38.44;27.54
70730;BME280;58315;53.336;55.932;2022-07-31T04:42:45;99602.19;;;38.41;28.38
70730;BME280;58315;53.336;55.932;2022-07-31T04:45:11;99600.56;;;38.57;27.10
70730;BME280;58315;53.336;55.932;2022-07-31T04:47:37;99601.22;;;38.71;26.57
70730;BME280;58315;53.336;55.932;2022-07-31T04:50:03;99604.63;;;38.77;26.81
70730;BME280;58315;53.336;55.932;2022-07-31T04:52:30;99601.69;;;38.65;27.32
70730;BME280;58315;53.336;55.932;2022-07-31T04:55:02;99609.69;;;38.83;26.46
70730;BME280;58315;53.336;55.932;2022-07-31T04:57:29;99596.16;;;39.17;26.77
70730;BME280;58315;53.336;55.932;2022-07-31T04:59:55;99589.44;;;39.82;26.00
70730;BME280;58315;53.336;55.932;2022-07-31T05:02:21;99597.00;;;39.55;25.99
70730;BME280;58315;53.336;55.932;2022-07-31T05:04:48;99591.78;;;39.63;25.99
70730;BME280;58315;53.336;55.932;2022-07-31T05:07:14;99581.91;;;39.91;26.01
70730;BME280;58315;53.336;55.932;2022-07-31T05:09:40;99589.72;;;39.89;25.54
70730;BME280;58315;53.336;55.932;2022-07-31T05:12:07;99591.97;;;40.25;25.33
70730;BME280;58315;53.336;55.932;2022-07-31T05:14:33;99592.72;;;40.35;25.08
70730;BME280;58315;53.336;55.932;2022-07-31T05:16:59;99596.31;;;40.35;25.03
70730;BME280;58315;53.336;55.932;2022-07-31T05:19:34;99591.44;;;40.53;25.17
70730;BME280;58315;53.336;55.932;2022-07-31T05:22:35;99589.13;;;40.97;24.50
70730;BME280;58315;53.336;55.932;2022-07-31T05:25:19;99590.16;;;41.26;24.12
70730;BME280;58315;53.336;55.932;2022-07-31T05:27:45;99597.38;;;41.51;24.46
70730;BME280;58315;53.336;55.932;2022-07-31T05:30:12;99591.13;;;41.79;23.77
70730;BME280;58315;53.336;55.932;2022-07-31T05:32:38;99585.72;;;41.70;23.84
70730;BME280;58315;53.336;55.932;2022-07-31T05:35:04;99582.63;;;41.26;24.08
70730;BME280;58315;53.336;55.932;2022-07-31T05:37:30;99583.06;;;41.16;24.63
70730;BME280;58315;53.336;55.932;2022-07-31T05:39:58;99577.72;;;41.44;24.37
70730;BME280;58315;53.336;55.932;2022-07-31T05:42:42;99575.41;;;41.71;23.90
70730;BME280;58315;53.336;55.932;2022-07-31T05:45:32;99568.69;;;42.21;23.79
70730;BME280;58315;53.336;55.932;2022-07-31T05:47:58;99574.25;;;42.21;23.23
70730;BME280;58315;53.336;55.932;2022-07-31T05:50:24;99563.44;;;41.91;23.37
70730;BME280;58315;53.336;55.932;2022-07-31T05:52:50;99564.78;;;41.97;22.92
70730;BME280;58315;53.336;55.932;2022-07-31T05:55:37;99564.03;;;41.39;23.49
70730;BME280;58315;53.336;55.932;2022-07-31T05:58:38;99558.09;;;41.86;23.80
70730;BME280;58315;53.336;55.932;2022-07-31T06:01:05;99558.66;;;42.04;23.65
70730;BME280;58315;53.336;55.932;2022-07-31T06:03:31;99559.34;;;42.01;22.83
70730;BME280;58315;53.336;55.932;2022-07-31T06:06:04;99551.50;;;41.78;22.71
70730;BME280;58315;53.336;55.932;2022-07-31T06:08:30;99551.59;;;41.82;23.03
70730;BME280;58315;53.336;55.932;2022-07-31T06:10:58;99554.59;;;41.40;23.15
70730;BME280;58315;53.336;55.932;2022-07-31T06:13:25;99553.72;;;41.03;23.28
70730;BME280;58315;53.336;55.932;2022-07-31T06:15:52;99557.56;;;41.23;23.68
70730;BME280;58315;53.336;55.932;2022-07-31T06:18:19;99543.00;;;40.80;23.48
70730;BME280;58315;53.336;55.932;2022-07-31T06:20:45;99542.88;;;40.77;23.39
70730;BME280;58315;53.336;55.932;2022-07-31T06:23:11;99547.47;;;40.72;23.45
70730;BME280;58315;53.336;55.932;2022-07-31T06:25:38;99543.22;;;40.54;23.28
70730;BME280;58315;53.336;55.932;2022-07-31T06:28:04;99537.38;;;40.14;23.74
70730;BME280;58315;53.336;55.932;2022-07-31T06:30:30;99544.81;;;39.24;24.11
70730;BME280;58315;53.336;55.932;2022-07-31T06:32:56;99532.72;;;38.39;24.70
70730;BME280;58315;53.336;55.932;2022-07-31T06:35:22;99538.16;;;37.55;26.29
70730;BME280;58315;53.336;55.932;2022-07-31T06:38:21;99527.03;;;36.76;27.02
70730;BME280;58315;53.336;55.932;2022-07-31T06:41:18;99524.84;;;35.64;27.28
70730;BME280;58315;53.336;55.932;2022-07-31T06:44:21;99529.47;;;34.57;27.92
70730;BME280;58315;53.336;55.932;2022-07-31T06:47:03;99530.78;;;33.78;28.81
70730;BME280;58315;53.336;55.932;2022-07-31T06:49:42;99522.38;;;33.22;29.03
70730;BME280;58315;53.336;55.932;2022-07-31T06:52:08;99522.56;;;33.01;30.36
70730;BME280;58315;53.336;55.932;2022-07-31T06:54:34;99526.66;;;32.64;29.63
70730;BME280;58315;53.336;55.932;2022-07-31T06:57:02;99524.75;;;32.21;30.22
70730;BME280;58315;53.336;55.932;2022-07-31T06:59:29;99520.03;;;31.77;30.09
70730;BME280;58315;53.336;55.932;2022-07-31T07:01:55;99515.16;;;31.68;29.72
70730;BME280;58315;53.336;55.932;2022-07-31T07:04:21;99522.47;;;31.88;30.54
70730;BME280;58315;53.336;55.932;2022-07-31T07:06:47;99514.41;;;32.12;30.19
70730;BME280;58315;53.336;55.932;2022-07-31T07:09:13;99520.91;;;32.27;30.51
70730;BME280;58315;53.336;55.932;2022-07-31T07:11:39;99511.00;;;31.86;30.89
70730;BME280;58315;53.336;55.932;2022-07-31T07:14:05;99514.56;;;31.82;31.55
70730;BME280;58315;53.336;55.932;2022-07-31T07:16:31;99512.88;;;31.96;31.97
70730;BME280;58315;53.336;55.932;2022-07-31T07:18:57;99509.00;;;32.02;31.92
70730;BME280;58315;53.336;55.932;2022-07-31T07:21:24;99512.00;;;32.06;32.44
70730;BME280;58315;53.336;55.932;2022-07-31T07:23:50;99502.00;;;31.86;30.98
70730;BME280;58315;53.336;55.932;2022-07-31T07:26:29;99509.25;;;32.06;31.71
70730;BME280;58315;53.336;55.932;2022-07-31T07:28:56;99506.81;;;32.04;30.58
70730;BME280;58315;53.336;55.932;2022-07-31T07:31:22;99493.81;;;31.86;30.80
70730;BME280;58315;53.336;55.932;2022-07-31T07:33:49;99498.56;;;31.50;31.91
70730;BME280;58315;53.336;55.932;2022-07-31T07:36:22;99498.84;;;31.43;31.87
70730;BME280;58315;53.336;55.932;2022-07-31T07:38:48;99489.75;;;31.63;31.49
70730;BME280;58315;53.336;55.932;2022-07-31T07:41:15;99491.13;;;31.70;30.34
70730;BME280;58315;53.336;55.932;2022-07-31T07:43:41;99484.94;;;31.39;30.13
70730;BME280;58315;53.336;55.932;2022-07-31T07:46:07;99486.63;;;31.10;30.86
70730;BME280;58315;53.336;55.932;2022-07-31T07:48:34;99485.00;;;31.14;30.91
70730;BME280;58315;53.336;55.932;2022-07-31T07:51:22;99482.44;;;31.53;31.26
70730;BME280;58315;53.336;55.932;2022-07-31T07:53:56;99481.22;;;31.80;31.05
70730;BME280;58315;53.336;55.932;2022-07-31T07:56:40;99478.75;;;31.93;31.07
70730;BME280;58315;53.336;55.932;2022-07-31T07:59:10;99488.00;;;31.98;32.59
70730;BME280;58315;53.336;55.932;2022-07-31T08:01:55;99479.06;;;31.82;32.86
70730;BME280;58315;53.336;55.932;2022-07-31T08:04:25;99481.78;;;31.87;33.54
70730;BME280;58315;53.336;55.932;2022-07-31T08:06:51;99481.16;;;31.20;32.94
70730;BME280;58315;53.336;55.932;2022-07-31T08:09:18;99476.56;;;31.00;32.79
70730;BME280;58315;53.336;55.932;2022-07-31T08:12:14;99472.69;;;31.32;31.96
70730;BME280;58315;53.336;55.932;2022-07-31T08:14:59;99473.50;;;31.22;33.66
70730;BME280;58315;53.336;55.932;2022-07-31T08:17:37;99471.06;;;31.31;31.90
70730;BME280;58315;53.336;55.932;2022-07-31T08:20:05;99481.13;;;31.45;32.64
70730;BME280;58315;53.336;55.932;2022-07-31T08:22:31;99466.06;;;31.53;32.20
70730;BME280;58315;53.336;55.932;2022-07-31T08:24:57;99463.56;;;31.62;31.32
70730;BME280;58315;53.336;55.932;2022-07-31T08:27:23;99469.38;;;31.45;32.50
70730;BME280;58315;53.336;55.932;2022-07-31T08:29:51;99466.16;;;31.17;31.12
70730;BME280;58315;53.336;55.932;2022-07-31T08:32:19;99458.59;;;30.84;30.88
70730;BME280;58315;53.336;55.932;2022-07-31T08:35:05;99456.66;;;30.69;31.66
70730;BME280;58315;53.336;55.932;2022-07-31T08:37:32;99444.94;;;30.84;32.00
70730;BME280;58315;53.336;55.932;2022-07-31T08:39:58;99458.31;;;30.90;34.00
70730;BME280;58315;53.336;55.932;2022-07-31T08:43:36;99450.34;;;31.09;33.19
70730;BME280;58315;53.336;55.932;2022-07-31T08:46:03;99448.63;;;31.49;32.55
70730;BME280;58315;53.336;55.932;2022-07-31T08:48:36;99446.84;;;31.79;32.06
70730;BME280;58315;53.336;55.932;2022-07-31T08:51:05;99444.66;;;31.76;31.43
70730;BME280;58315;53.336;55.932;2022-07-31T08:53:52;99434.94;;;31.54;31.27
70730;BME280;58315;53.336;55.932;2022-07-31T08:56:19;99429.97;;;31.61;32.57
70730;BME280;58315;53.336;55.932;2022-07-31T08:58:46;99430.41;;;31.84;31.44
70730;BME280;58315;53.336;55.932;2022-07-31T09:01:13;99434.41;;;32.02;34.63
70730;BME280;58315;53.336;55.932;2022-07-31T09:03:40;99427.84;;;32.08;32.84
70730;BME280;58315;53.336;55.932;2022-07-31T09:06:10;99436.53;;;32.10;34.80
70730;BME280;58315;53.336;55.932;2022-07-31T09:08:36;99429.06;;;32.26;35.52
70730;BME280;58315;53.336;55.932;2022-07-31T09:11:07;99425.38;;;32.06;34.90
70730;BME280;58315;53.336;55.932;2022-07-31T09:13:56;99428.75;;;31.93;32.94
70730;BME280;58315;53.336;55.932;2022-07-31T09:16:43;99418.97;;;31.82;33.86
70730;BME280;58315;53.336;55.932;2022-07-31T09:19:10;99419.31;;;31.65;30.56
70730;BME280;58315;53.336;55.932;2022-07-31T09:21:41;99411.38;;;31.68;32.13
70730;BME280;58315;53.336;55.932;2022-07-31T09:24:08;99404.25;;;31.73;31.67
70730;BME280;58315;53.336;55.932;2022-07-31T09:26:35;99404.72;;;31.85;30.37
70730;BME280;58315;53.336;55.932;2022-07-31T09:29:02;99403.59;;;31.96;29.96
70730;BME280;58315;53.336;55.932;2022-07-31T09:31:34;99399.09;;;32.10;31.02
70730;BME280;58315;53.336;55.932;2022-07-31T09:34:39;99393.69;;;32.05;29.40
70730;BME280;58315;53.336;55.932;2022-07-31T09:37:18;99405.09;;;32.12;29.78
70730;BME280;58315;53.336;55.932;2022-07-31T09:40:08;99404.91;;;32.04;29.75
70730;BME280;58315;53.336;55.932;2022-07-31T09:42:36;99397.78;;;32.08;30.62
70730;BME280;58315;53.336;55.932;2022-07-31T09:45:21;99399.56;;;32.23;30.27
70730;BME280;58315;53.336;55.932;2022-07-31T09:48:01;99390.44;;;32.32;29.38
70730;BME280;58315;53.336;55.932;2022-07-31T09:50:28;99393.16;;;32.37;30.18
70730;BME280;58315;53.336;55.932;2022-07-31T09:52:58;99391.69;;;32.50;30.64
70730;BME280;58315;53.336;55.932;2022-07-31T09:55:26;99392.53;;;32.51;32.08
70730;BME280;58315;53.336;55.932;2022-07-31T09:57:54;99390.41;;;32.37;31.93
70730;BME280;58315;53.336;55.932;2022-07-31T10:00:21;99390.69;;;32.36;30.80
70730;BME280;58315;53.336;55.932;2022-07-31T10:02:48;99390.41;;;32.37;30.27
70730;BME280;58315;53.336;55.932;2022-07-31T10:05:16;99389.59;;;32.42;29.79
70730;BME280;58315;53.336;55.932;2022-07-31T10:07:43;99383.13;;;32.28;31.61
70730;BME280;58315;53.336;55.932;2022-07-31T10:10:12;99381.16;;;32.33;31.64
70730;BME280;58315;53.336;55.932;2022-07-31T10:12:53;99377.38;;;32.29;31.49
70730;BME280;58315;53.336;55.932;2022-07-31T10:15:22;99379.75;;;32.36;30.87
70730;BME280;58315;53.336;55.932;2022-07-31T10:18:08;99370.47;;;32.37;30.63
70730;BME280;58315;53.336;55.932;2022-07-31T10:21:04;99380.75;;;32.16;29.81
70730;BME280;58315;53.336;55.932;2022-07-31T10:24:04;99366.00;;;31.73;29.68
70730;BME280;58315;53.336;55.932;2022-07-31T10:26:32;99366.16;;;31.52;30.12
70730;BME280;58315;53.336;55.932;2022-07-31T10:28:58;99354.97;;;31.49;30.52
70730;BME280;58315;53.336;55.932;2022-07-31T10:31:25;99358.03;;;31.37;30.92
70730;BME280;58315;53.336;55.932;2022-07-31T10:33:51;99364.59;;;31.26;30.30
70730;BME280;58315;53.336;55.932;2022-07-31T10:36:40;99362.47;;;31.17;29.77
70730;BME280;58315;53.336;55.932;2022-07-31T10:39:58;99366.56;;;31.15;30.01
70730;BME280;58315;53.336;55.932;2022-07-31T10:42:54;99358.06;;;31.27;30.21
70730;BME280;58315;53.336;55.932;2022-07-31T10:45:26;99364.06;;;31.23;30.35
70730;BME280;58315;53.336;55.932;2022-07-31T10:48:02;99356.97;;;31.28;30.03
70730;BME280;58315;53.336;55.932;2022-07-31T10:50:58;99356.97;;;31.28;30.50
70730;BME280;58315;53.336;55.932;2022-07-31T10:53:57;99357.03;;;31.12;29.85
70730;BME280;58315;53.336;55.932;2022-07-31T10:56:43;99347.31;;;30.81;29.65
70730;BME280;58315;53.336;55.932;2022-07-31T10:59:33;99350.06;;;30.76;29.90
70730;BME280;58315;53.336;55.932;2022-07-31T11:02:32;99347.00;;;30.97;30.55
70730;BME280;58315;53.336;55.932;2022-07-31T11:05:17;99346.91;;;31.18;30.77
70730;BME280;58315;53.336;55.932;2022-07-31T11:08:06;99352.25;;;31.43;30.34
70730;BME280;58315;53.336;55.932;2022-07-31T11:10:54;99346.44;;;31.60;29.64
70730;BME280;58315;53.336;55.932;2022-07-31T11:13:49;99345.03;;;31.68;29.52
70730;BME280;58315;53.336;55.932;2022-07-31T11:16:51;99347.94;;;31.82;29.71
70730;BME280;58315;53.336;55.932;2022-07-31T11:19:42;99339.34;;;31.59;29.65
70730;BME280;58315;53.336;55.932;2022-07-31T11:22:10;99346.00;;;31.43;29.67
70730;BME280;58315;53.336;55.932;2022-07-31T11:24:36;99351.41;;;31.48;29.65
70730;BME280;58315;53.336;55.932;2022-07-31T11:27:03;99349.78;;;31.52;30.12
70730;BME280;58315;53.336;55.932;2022-07-31T11:29:32;99343.66;;;31.65;30.53
70730;BME280;58315;53.336;55.932;2022-07-31T11:32:12;99346.38;;;31.70;30.24
70730;BME280;58315;53.336;55.932;2022-07-31T11:34:48;99334.41;;;31.61;29.57
70730;BME280;58315;53.336;55.932;2022-07-31T11:37:26;99340.47;;;31.53;29.85
70730;BME280;58315;53.336;55.932;2022-07-31T11:39:54;99342.97;;;31.50;30.81
70730;BME280;58315;53.336;55.932;2022-07-31T11:42:22;99341.59;;;31.52;31.22
70730;BME280;58315;53.336;55.932;2022-07-31T11:44:49;99337.75;;;31.48;31.55
70730;BME280;58315;53.336;55.932;2022-07-31T11:47:15;99333.94;;;31.49;29.99
70730;BME280;58315;53.336;55.932;2022-07-31T11:49:41;99339.41;;;31.49;29.87
70730;BME280;58315;53.336;55.932;2022-07-31T11:52:09;99329.00;;;31.51;29.87
70730;BME280;58315;53.336;55.932;2022-07-31T11:54:39;99336.13;;;31.47;30.10
70730;BME280;58315;53.336;55.932;2022-07-31T11:57:05;99334.25;;;31.42;30.34
70730;BME280;58315;53.336;55.932;2022-07-31T11:59:35;99330.97;;;31.45;30.40
70730;BME280;58315;53.336;55.932;2022-07-31T12:02:06;99319.50;;;31.49;30.39
70730;BME280;58315;53.336;55.932;2022-07-31T12:04:33;99329.00;;;31.56;30.31
70730;BME280;58315;53.336;55.932;2022-07-31T12:07:01;99326.28;;;31.51;31.03
70730;BME280;58315;53.336;55.932;2022-07-31T12:09:29;99316.47;;;31.50;32.66
70730;BME280;58315;53.336;55.932;2022-07-31T12:11:55;99320.25;;;31.54;31.70
70730;BME280;58315;53.336;55.932;2022-07-31T12:16:58;99313.13;;;31.58;32.31
70730;BME280;58315;53.336;55.932;2022-07-31T12:19:29;99322.22;;;31.49;31.04
70730;BME280;58315;53.336;55.932;2022-07-31T12:21:56;99317.84;;;31.48;30.88
70730;BME280;58315;53.336;55.932;2022-07-31T12:24:23;99324.97;;;31.43;30.23
70730;BME280;58315;53.336;55.932;2022-07-31T12:26:51;99321.31;;;31.58;31.60
70730;BME280;58315;53.336;55.932;2022-07-31T12:29:18;99322.38;;;31.67;30.99
70730;BME280;58315;53.336;55.932;2022-07-31T12:31:49;99318.22;;;31.75;31.36
70730;BME280;58315;53.336;55.932;2022-07-31T12:34:30;99322.22;;;31.88;31.63
70730;BME280;58315;53.336;55.932;2022-07-31T12:39:31;99318.47;;;31.74;31.95
70730;BME280;58315;53.336;55.932;2022-07-31T12:41:57;99317.97;;;31.66;32.50
70730;BME280;58315;53.336;55.932;2022-07-31T12:44:26;99314.97;;;31.68;31.85
70730;BME280;58315;53.336;55.932;2022-07-31T12:46:53;99314.72;;;31.64;30.23
70730;BME280;58315;53.336;55.932;2022-07-31T12:49:19;99319.19;;;31.50;30.13
70730;BME280;58315;53.336;55.932;2022-07-31T12:51:45;99314.84;;;31.49;29.45
70730;BME280;58315;53.336;55.932;2022-07-31T12:54:15;99314.53;;;31.51;29.91
70730;BME280;58315;53.336;55.932;2022-07-31T12:56:42;99305.53;;;31.50;30.20
70730;BME280;58315;53.336;55.932;2022-07-31T12:59:09;99313.22;;;32.22;29.34
70730;BME280;58315;53.336;55.932;2022-07-31T13:01:35;99306.59;;;32.28;29.54
70730;BME280;58315;53.336;55.932;2022-07-31T13:04:01;99303.38;;;32.21;29.76
70730;BME280;58315;53.336;55.932;2022-07-31T13:06:29;99312.06;;;32.28;29.54
70730;BME280;58315;53.336;55.932;2022-07-31T13:08:55;99306.41;;;32.19;29.15
70730;BME280;58315;53.336;55.932;2022-07-31T13:11:22;99307.16;;;32.25;29.37
70730;BME280;58315;53.336;55.932;2022-07-31T13:13:50;99304.47;;;32.20;29.46
70730;BME280;58315;53.336;55.932;2022-07-31T13:16:17;99303.75;;;32.09;29.19
70730;BME280;58315;53.336;55.932;2022-07-31T13:18:43;99295.78;;;32.12;29.19
70730;BME280;58315;53.336;55.932;2022-07-31T13:21:09;99300.72;;;32.10;29.30
70730;BME280;58315;53.336;55.932;2022-07-31T13:23:35;99290.34;;;32.12;29.45